Terminal Aerodrome Forecast
Issued by NWS Tulsa, OK

Current Version | Previous Version | Text Only | Print | Product List | Glossary On
Versions: 1 2 3 4 5 6 7 8 9 10 11 12 13 14 15 16
000
FTUS44 KTSA 280520
TAFTUL
TAF
KTUL 280520Z 2806/2906 16009KT P6SM SCT150
     FM281500 17012G20KT P6SM SCT050 BKN250
     FM282300 18012KT P6SM VCTS BKN050CB PROB30 2900/2906 5SM -TSRA
      BKN040CB=

USA.gov is the U.S. government's official web portal to all federal, state and local government web resources and services.